createdAt,value
2023-01-30T00:00:23.174Z,3.86
2023-01-30T00:01:23.165Z,3.86
2023-01-30T00:02:23.184Z,3.86
2023-01-30T00:03:23.134Z,3.88
2023-01-30T00:04:23.121Z,3.88
2023-01-30T00:05:23.161Z,3.88
2023-01-30T00:06:23.130Z,3.89
2023-01-30T00:07:23.088Z,3.92
2023-01-30T00:08:23.077Z,3.93
2023-01-30T00:09:23.096Z,3.92
2023-01-30T00:10:25.790Z,3.95
2023-01-30T00:11:23.063Z,3.95
2023-01-30T00:12:23.029Z,3.95
2023-01-30T00:13:23.027Z,3.95
2023-01-30T00:14:23.013Z,3.95
2023-01-30T00:15:23.001Z,3.95
2023-01-30T00:16:23.086Z,3.93
2023-01-30T00:17:22.979Z,3.96
2023-01-30T00:18:22.972Z,3.96
2023-01-30T00:19:22.957Z,3.98
2023-01-30T00:20:22.948Z,3.96
2023-01-30T00:21:22.944Z,3.96
2023-01-30T00:22:22.923Z,3.96
2023-01-30T00:23:22.922Z,3.98
2023-01-30T00:24:22.978Z,3.99
2023-01-30T00:25:23.004Z,4.04
2023-01-30T00:26:22.915Z,4.02
2023-01-30T00:27:22.868Z,4.04
2023-01-30T00:28:22.854Z,4.04
2023-01-30T00:29:22.854Z,4.02
2023-01-30T00:30:22.889Z,4.02
2023-01-30T00:31:22.897Z,4.06
2023-01-30T00:32:22.821Z,4.04
2023-01-30T00:33:22.804Z,4.04
2023-01-30T00:34:22.789Z,4.06
2023-01-30T00:35:22.784Z,4.04
2023-01-30T00:36:22.781Z,4.02
2023-01-30T00:37:22.763Z,4.02
2023-01-30T00:38:22.748Z,4.00
2023-01-30T00:39:22.738Z,4.02
2023-01-30T00:40:22.727Z,4.00
2023-01-30T00:41:22.757Z,4.04
2023-01-30T00:42:22.707Z,4.02
2023-01-30T00:43:22.699Z,4.04
2023-01-30T00:44:22.678Z,4.02
2023-01-30T00:45:22.674Z,4.04
2023-01-30T00:46:22.668Z,4.04
2023-01-30T00:47:22.650Z,4.04
2023-01-30T00:48:22.640Z,4.06
2023-01-30T00:49:22.632Z,4.07
2023-01-30T00:50:22.615Z,4.08
2023-01-30T00:51:22.619Z,4.07
2023-01-30T00:52:22.599Z,4.07
2023-01-30T00:53:22.581Z,4.07
2023-01-30T00:54:22.575Z,4.08
2023-01-30T00:55:22.565Z,4.10
2023-01-30T00:56:22.577Z,4.11
2023-01-30T00:57:22.543Z,4.10
2023-01-30T00:58:22.548Z,4.11
2023-01-30T00:59:22.521Z,4.13
2023-01-30T01:00:22.508Z,4.13
2023-01-30T01:01:22.543Z,4.16
2023-01-30T01:02:22.507Z,4.17
2023-01-30T01:03:22.521Z,4.16
2023-01-30T01:04:22.464Z,4.14
2023-01-30T01:05:22.458Z,4.17
2023-01-30T01:06:22.448Z,4.17
2023-01-30T01:07:22.433Z,4.18
2023-01-30T01:08:22.418Z,4.20
2023-01-30T01:09:22.408Z,4.18
2023-01-30T01:10:22.397Z,4.18
2023-01-30T01:11:22.404Z,4.17
2023-01-30T01:12:22.373Z,4.18
2023-01-30T01:13:22.369Z,4.17
2023-01-30T01:14:22.351Z,4.18
2023-01-30T01:15:22.348Z,4.16
2023-01-30T01:16:22.360Z,4.17
2023-01-30T01:17:22.334Z,4.18
2023-01-30T01:18:22.313Z,4.18
2023-01-30T01:19:22.300Z,4.20
2023-01-30T01:20:22.283Z,4.20
2023-01-30T01:21:22.286Z,4.21
2023-01-30T01:22:22.269Z,4.20
2023-01-30T01:23:22.265Z,4.21
2023-01-30T01:24:22.239Z,4.24
2023-01-30T01:25:22.251Z,4.24
2023-01-30T01:26:22.287Z,4.24
2023-01-30T01:27:22.220Z,4.25
2023-01-30T01:28:22.197Z,4.25
2023-01-30T01:29:22.193Z,4.26
2023-01-30T01:30:22.172Z,4.25
2023-01-30T01:31:22.249Z,4.25
2023-01-30T01:32:22.159Z,4.28
2023-01-30T01:33:22.149Z,4.31
2023-01-30T01:34:22.134Z,4.31
2023-01-30T01:35:22.124Z,4.32
2023-01-30T01:36:51.555Z,4.34
2023-01-30T01:37:22.115Z,4.34
2023-01-30T01:38:22.085Z,4.34
2023-01-30T01:39:22.083Z,4.32
2023-01-30T01:40:22.067Z,4.32
2023-01-30T01:41:22.051Z,4.35
2023-01-30T01:42:22.055Z,4.34
2023-01-30T01:43:22.033Z,4.35
2023-01-30T01:44:22.024Z,4.36
2023-01-30T01:45:22.007Z,4.36
2023-01-30T01:46:22.000Z,4.38
2023-01-30T01:47:21.996Z,4.38
2023-01-30T01:48:21.977Z,4.39
2023-01-30T01:49:21.960Z,4.38
2023-01-30T01:50:21.957Z,4.42
2023-01-30T01:51:21.938Z,4.44
2023-01-30T01:52:21.956Z,4.44
2023-01-30T01:53:21.922Z,4.44
2023-01-30T01:54:21.918Z,4.43
2023-01-30T01:55:21.904Z,4.44
2023-01-30T01:56:21.889Z,4.44
2023-01-30T01:57:21.886Z,4.44
2023-01-30T01:58:21.870Z,4.46
2023-01-30T01:59:21.857Z,4.46
2023-01-30T02:00:21.843Z,4.47
2023-01-30T02:01:21.852Z,4.49
2023-01-30T02:02:21.855Z,4.47
2023-01-30T02:03:21.809Z,4.50
2023-01-30T02:04:21.801Z,4.49
2023-01-30T02:05:21.788Z,4.49
2023-01-30T02:06:21.772Z,4.50
2023-01-30T02:07:21.791Z,4.51
2023-01-30T02:08:21.756Z,4.51
2023-01-30T02:09:21.747Z,4.51
2023-01-30T02:10:21.736Z,4.51
2023-01-30T02:11:21.745Z,4.53
2023-01-30T02:12:21.723Z,4.56
2023-01-30T02:13:21.706Z,4.56
2023-01-30T02:14:21.687Z,4.59
2023-01-30T02:15:21.679Z,4.59
2023-01-30T02:16:21.674Z,4.57
2023-01-30T02:17:21.702Z,4.59
2023-01-30T02:18:21.651Z,4.61
2023-01-30T02:19:21.652Z,4.61
2023-01-30T02:20:21.621Z,4.61
2023-01-30T02:21:21.613Z,4.62
2023-01-30T02:22:21.614Z,4.62
2023-01-30T02:23:21.592Z,4.62
2023-01-30T02:24:21.583Z,4.64
2023-01-30T02:25:21.567Z,4.65
2023-01-30T02:26:21.578Z,4.67
2023-01-30T02:31:01.239Z,4.71
2023-01-30T02:31:53.645Z,4.71
2023-01-30T02:32:53.564Z,4.71
2023-01-30T02:33:53.559Z,4.75
2023-01-30T02:34:53.542Z,4.74
2023-01-30T02:35:53.531Z,4.75
2023-01-30T02:36:53.529Z,4.77
2023-01-30T02:37:53.512Z,4.75
2023-01-30T02:38:53.494Z,4.77
2023-01-30T02:39:53.488Z,4.79
2023-01-30T02:40:53.474Z,4.83
2023-01-30T02:41:53.475Z,4.86
2023-01-30T02:42:53.454Z,4.86
2023-01-30T02:43:53.444Z,4.88
2023-01-30T02:44:53.430Z,4.86
2023-01-30T02:45:53.450Z,4.84
2023-01-30T02:46:53.415Z,4.83
2023-01-30T02:47:53.423Z,4.84
2023-01-30T02:48:53.388Z,4.86
2023-01-30T02:49:53.406Z,4.88
2023-01-30T02:50:53.383Z,4.91
2023-01-30T02:51:53.389Z,4.93
2023-01-30T02:52:53.342Z,4.91
2023-01-30T02:53:53.340Z,4.94
2023-01-30T02:54:53.319Z,4.94
2023-01-30T02:55:53.314Z,4.97
2023-01-30T02:56:53.330Z,4.97
2023-01-30T02:57:53.288Z,4.99
2023-01-30T02:58:53.283Z,4.96
2023-01-30T02:59:53.274Z,4.99
2023-01-30T03:00:53.254Z,4.99
2023-01-30T03:01:53.267Z,5.01
2023-01-30T03:02:53.261Z,5.04
2023-01-30T03:03:53.226Z,5.04
2023-01-30T03:04:53.213Z,5.05
2023-01-30T03:05:53.206Z,5.06
2023-01-30T03:06:53.199Z,5.06
2023-01-30T03:07:53.185Z,5.06
2023-01-30T03:08:53.165Z,5.06
2023-01-30T03:09:53.167Z,5.09
2023-01-30T03:10:53.147Z,5.09
2023-01-30T03:11:53.151Z,5.11
2023-01-30T03:12:53.130Z,5.12
2023-01-30T03:13:53.116Z,5.12
2023-01-30T03:14:53.102Z,5.15
2023-01-30T03:15:53.211Z,5.17
2023-01-30T03:16:53.101Z,5.19
2023-01-30T03:17:53.686Z,5.22
2023-01-30T03:18:53.066Z,5.22
2023-01-30T03:19:53.057Z,5.22
2023-01-30T03:20:53.032Z,5.22
2023-01-30T03:21:53.026Z,5.24
2023-01-30T03:22:53.025Z,5.24
2023-01-30T03:23:53.021Z,5.26
2023-01-30T03:24:53.001Z,5.27
2023-01-30T03:25:52.981Z,5.27
2023-01-30T03:26:52.974Z,5.29
2023-01-30T03:27:52.976Z,5.32
2023-01-30T03:28:52.958Z,5.35
2023-01-30T03:29:52.940Z,5.35
2023-01-30T03:30:53.004Z,5.37
2023-01-30T03:31:52.988Z,5.41
2023-01-30T03:32:52.910Z,5.42
2023-01-30T03:33:52.897Z,5.47
2023-01-30T03:34:52.882Z,5.47
2023-01-30T03:35:52.881Z,5.48
2023-01-30T03:36:52.857Z,5.48
2023-01-30T03:37:52.880Z,5.52
2023-01-30T03:38:52.880Z,5.55
2023-01-30T03:39:52.830Z,5.52
2023-01-30T03:40:52.814Z,5.52
2023-01-30T03:41:52.808Z,5.49
2023-01-30T03:42:52.802Z,5.51
2023-01-30T03:43:52.789Z,5.52
2023-01-30T03:44:52.767Z,5.52
2023-01-30T03:45:52.786Z,5.52
2023-01-30T03:46:52.758Z,5.55
2023-01-30T03:47:52.754Z,5.55
2023-01-30T03:48:52.725Z,5.56
2023-01-30T03:49:52.723Z,5.55
2023-01-30T03:50:52.702Z,5.56
2023-01-30T03:51:52.698Z,5.52
2023-01-30T03:52:52.691Z,5.52
2023-01-30T03:53:52.680Z,5.52
2023-01-30T03:54:52.684Z,5.56
2023-01-30T03:55:52.651Z,5.56
2023-01-30T03:56:52.640Z,5.58
2023-01-30T03:57:52.638Z,5.58
2023-01-30T03:58:52.620Z,5.56
2023-01-30T03:59:52.609Z,5.58
2023-01-30T04:00:52.630Z,5.58
2023-01-30T04:01:52.585Z,5.58
2023-01-30T04:02:52.583Z,5.60
2023-01-30T04:03:52.564Z,5.59
2023-01-30T04:04:52.549Z,5.60
2023-01-30T04:05:52.544Z,5.62
2023-01-30T04:06:52.526Z,5.63
2023-01-30T04:07:52.530Z,5.63
2023-01-30T04:08:52.507Z,5.63
2023-01-30T04:09:52.506Z,5.63
2023-01-30T04:10:52.483Z,5.65
2023-01-30T04:11:52.480Z,5.66
2023-01-30T04:12:52.474Z,5.67
2023-01-30T04:13:52.458Z,5.70
2023-01-30T04:14:52.444Z,5.73
2023-01-30T04:15:52.461Z,5.73
2023-01-30T04:16:52.452Z,5.70
2023-01-30T04:17:52.430Z,5.73
2023-01-30T04:18:52.411Z,5.74
2023-01-30T04:19:52.395Z,5.74
2023-01-30T04:20:52.382Z,5.75
2023-01-30T04:21:52.390Z,5.77
2023-01-30T04:22:52.362Z,5.75
2023-01-30T04:23:52.346Z,5.75
2023-01-30T04:24:52.331Z,5.77
2023-01-30T04:25:52.324Z,5.80
2023-01-30T04:26:52.310Z,5.78
2023-01-30T04:27:52.325Z,5.78
2023-01-30T04:28:52.285Z,5.80
2023-01-30T04:29:52.291Z,5.77
2023-01-30T04:30:52.307Z,5.77
2023-01-30T04:31:52.259Z,5.75
2023-01-30T04:32:52.260Z,5.77
2023-01-30T04:33:52.280Z,5.78
2023-01-30T04:34:52.221Z,5.77
2023-01-30T04:35:52.222Z,5.78
2023-01-30T04:36:52.216Z,5.77
2023-01-30T04:37:52.192Z,5.78
2023-01-30T04:38:52.187Z,5.78
2023-01-30T04:39:52.177Z,5.78
2023-01-30T04:40:52.156Z,5.78
2023-01-30T04:41:52.174Z,5.80
2023-01-30T04:42:52.145Z,5.80
2023-01-30T04:43:54.679Z,5.78
2023-01-30T04:44:52.117Z,5.78
2023-01-30T04:45:52.105Z,5.78
2023-01-30T04:46:52.128Z,5.78
2023-01-30T04:47:52.295Z,5.78
2023-01-30T04:48:52.096Z,5.77
2023-01-30T04:49:52.063Z,5.78
2023-01-30T04:50:52.051Z,5.81
2023-01-30T04:51:52.036Z,5.81
2023-01-30T04:52:52.071Z,5.81
2023-01-30T04:53:52.022Z,5.80
2023-01-30T04:54:52.008Z,5.81
2023-01-30T04:55:51.995Z,5.80
2023-01-30T04:56:51.991Z,5.80
2023-01-30T04:57:51.972Z,5.77
2023-01-30T04:58:51.983Z,5.78
2023-01-30T04:59:51.948Z,5.78
2023-01-30T05:00:51.971Z,5.83
2023-01-30T05:01:51.955Z,5.83
2023-01-30T05:02:51.928Z,5.81
2023-01-30T05:03:51.912Z,5.84
2023-01-30T05:04:51.899Z,5.83
2023-01-30T05:05:51.888Z,5.87
2023-01-30T05:06:51.876Z,5.87
2023-01-30T05:07:51.861Z,5.87
2023-01-30T05:08:51.866Z,5.85
2023-01-30T05:09:51.838Z,5.84
2023-01-30T05:10:51.831Z,5.85
2023-01-30T05:11:51.831Z,5.85
2023-01-30T05:12:51.809Z,5.85
2023-01-30T05:13:51.807Z,5.85
2023-01-30T05:14:51.786Z,5.84
2023-01-30T05:15:51.774Z,5.84
2023-01-30T05:16:51.790Z,5.85
2023-01-30T05:17:51.752Z,5.84
2023-01-30T05:18:51.755Z,5.84
2023-01-30T05:19:51.729Z,5.84
2023-01-30T05:20:51.723Z,5.84
2023-01-30T05:21:51.714Z,5.85
2023-01-30T05:22:51.701Z,5.87
2023-01-30T05:23:51.697Z,5.84
2023-01-30T05:24:51.683Z,5.84
2023-01-30T05:25:51.664Z,5.85
2023-01-30T05:26:51.658Z,5.87
2023-01-30T05:27:51.641Z,5.85
2023-01-30T05:28:51.648Z,5.85
2023-01-30T05:29:51.632Z,5.85
2023-01-30T05:30:51.645Z,5.85
2023-01-30T05:31:51.671Z,5.87
2023-01-30T05:32:51.585Z,5.88
2023-01-30T05:33:51.588Z,5.92
2023-01-30T05:34:51.564Z,5.92
2023-01-30T05:35:51.560Z,5.88
2023-01-30T05:36:51.545Z,5.88
2023-01-30T05:37:51.548Z,5.87
2023-01-30T05:38:51.534Z,5.87
2023-01-30T05:39:51.554Z,5.87
2023-01-30T05:40:51.500Z,5.88
2023-01-30T05:41:51.497Z,5.90
2023-01-30T05:42:51.478Z,5.92
2023-01-30T05:43:51.491Z,5.95
2023-01-30T05:44:51.463Z,5.96
2023-01-30T05:45:51.453Z,5.96
2023-01-30T05:46:51.504Z,5.96
2023-01-30T05:47:51.428Z,5.99
2023-01-30T05:48:51.420Z,5.98
2023-01-30T05:49:51.406Z,5.99
2023-01-30T05:50:51.393Z,6.02
2023-01-30T05:51:51.738Z,6.05
2023-01-30T05:52:51.365Z,6.05
2023-01-30T05:53:51.371Z,6.06
2023-01-30T05:54:51.349Z,6.13
2023-01-30T05:55:51.339Z,6.16
2023-01-30T05:56:51.339Z,6.17
2023-01-30T05:57:51.318Z,6.19
2023-01-30T05:58:51.311Z,6.20
2023-01-30T05:59:51.299Z,6.19
2023-01-30T06:00:51.281Z,6.20
2023-01-30T06:01:51.271Z,6.24
2023-01-30T06:02:51.274Z,6.21
2023-01-30T06:03:51.424Z,6.24
2023-01-30T06:04:51.233Z,6.27
2023-01-30T06:05:51.231Z,6.27
2023-01-30T06:06:51.214Z,6.30
2023-01-30T06:07:51.211Z,6.27
2023-01-30T06:08:51.191Z,6.28
2023-01-30T06:09:51.194Z,6.27
2023-01-30T06:10:51.170Z,6.25
2023-01-30T06:11:51.787Z,6.27
2023-01-30T06:12:51.152Z,6.28
2023-01-30T06:13:51.140Z,6.30
2023-01-30T06:14:51.135Z,6.28
2023-01-30T06:15:51.135Z,6.28
2023-01-30T06:16:51.170Z,6.25
2023-01-30T06:17:51.114Z,6.27
2023-01-30T06:18:51.086Z,6.25
2023-01-30T06:19:51.085Z,6.27
2023-01-30T06:20:51.062Z,6.27
2023-01-30T06:21:51.065Z,6.24
2023-01-30T06:22:51.042Z,6.24
2023-01-30T06:23:51.033Z,6.27
2023-01-30T06:24:51.027Z,6.28
2023-01-30T06:25:51.011Z,6.28
2023-01-30T06:26:51.033Z,6.32
2023-01-30T06:27:50.987Z,6.28
2023-01-30T06:28:50.972Z,6.25
2023-01-30T06:29:50.974Z,6.24
2023-01-30T06:30:51.054Z,6.27
2023-01-30T06:31:50.945Z,6.27
2023-01-30T06:32:50.933Z,6.25
2023-01-30T06:33:50.922Z,6.24
2023-01-30T06:34:50.918Z,6.20
2023-01-30T06:35:50.951Z,6.13
2023-01-30T06:36:50.918Z,6.08
2023-01-30T06:37:50.879Z,6.08
2023-01-30T06:38:50.868Z,6.06
2023-01-30T06:39:50.868Z,6.08
2023-01-30T06:40:50.847Z,6.10
2023-01-30T06:41:50.832Z,6.08
2023-01-30T06:42:50.829Z,6.08
2023-01-30T06:43:50.814Z,6.06
2023-01-30T06:44:50.830Z,6.06
2023-01-30T06:45:50.841Z,6.03
2023-01-30T06:46:50.777Z,6.05
2023-01-30T06:47:50.771Z,6.02
2023-01-30T06:48:50.756Z,5.99
2023-01-30T06:49:50.756Z,5.98
2023-01-30T06:50:50.731Z,5.95
2023-01-30T06:51:50.726Z,5.92
2023-01-30T06:52:50.723Z,5.90
2023-01-30T06:53:52.442Z,5.92
2023-01-30T06:54:50.700Z,5.90
2023-01-30T06:55:50.685Z,5.87
2023-01-30T06:56:50.669Z,5.84
2023-01-30T06:57:50.662Z,5.84
2023-01-30T06:58:50.644Z,5.84
2023-01-30T06:59:50.655Z,5.81
2023-01-30T07:00:50.624Z,5.81
2023-01-30T07:01:50.643Z,5.81
2023-01-30T07:02:50.602Z,5.80
2023-01-30T07:03:50.608Z,5.78
2023-01-30T07:04:50.589Z,5.74
2023-01-30T07:05:50.571Z,5.74
2023-01-30T07:06:50.560Z,5.73
2023-01-30T07:07:50.548Z,5.70
2023-01-30T07:08:50.542Z,5.67
2023-01-30T07:10:02.285Z,5.65
2023-01-30T07:10:50.536Z,5.62
2023-01-30T07:11:50.503Z,5.60
2023-01-30T07:12:50.491Z,5.60
2023-01-30T07:13:50.488Z,5.56
2023-01-30T07:14:50.476Z,5.52
2023-01-30T07:15:50.471Z,5.49
2023-01-30T07:16:50.585Z,5.49
2023-01-30T07:17:50.443Z,5.55
2023-01-30T07:18:50.446Z,5.58
2023-01-30T07:19:50.451Z,5.62
2023-01-30T07:20:50.456Z,5.66
2023-01-30T07:21:50.396Z,5.65
2023-01-30T07:22:50.401Z,5.66
2023-01-30T07:23:50.378Z,5.66
2023-01-30T07:24:51.242Z,5.70
2023-01-30T07:25:50.426Z,5.77
2023-01-30T07:26:50.338Z,5.77
2023-01-30T07:27:50.332Z,5.74
2023-01-30T07:28:50.318Z,5.74
2023-01-30T07:29:51.905Z,5.74
2023-01-30T07:30:50.339Z,5.78
2023-01-30T07:31:50.375Z,5.80
2023-01-30T07:32:50.285Z,5.78
2023-01-30T07:33:50.276Z,5.80
2023-01-30T07:34:50.273Z,5.81
2023-01-30T07:35:50.252Z,5.81
2023-01-30T07:36:50.228Z,5.80
2023-01-30T07:37:50.254Z,5.77
2023-01-30T07:38:50.214Z,5.75
2023-01-30T07:39:50.205Z,5.75
2023-01-30T07:40:50.226Z,5.75
2023-01-30T07:41:50.240Z,5.73
2023-01-30T07:42:50.167Z,5.73
2023-01-30T07:43:50.194Z,5.70
2023-01-30T07:44:50.144Z,5.69
2023-01-30T07:45:50.149Z,5.66
2023-01-30T07:46:50.184Z,5.65
2023-01-30T07:47:50.111Z,5.66
2023-01-30T07:48:50.113Z,5.67
2023-01-30T07:49:50.094Z,5.70
2023-01-30T07:50:50.089Z,5.73
2023-01-30T07:51:50.096Z,5.77
2023-01-30T07:52:50.078Z,5.80
2023-01-30T07:53:50.072Z,5.81
2023-01-30T07:54:50.048Z,5.85
2023-01-30T07:55:50.043Z,5.88
2023-01-30T07:56:50.021Z,5.92
2023-01-30T07:57:50.031Z,5.96
2023-01-30T07:58:49.987Z,6.02
2023-01-30T07:59:49.990Z,6.06
2023-01-30T08:00:50.050Z,6.13
2023-01-30T08:01:49.985Z,6.19
2023-01-30T08:02:49.978Z,6.28
2023-01-30T08:03:49.936Z,6.33
2023-01-30T08:04:49.953Z,6.39
2023-01-30T08:05:49.932Z,6.40
2023-01-30T08:06:49.908Z,6.39
2023-01-30T08:07:49.904Z,6.38
2023-01-30T08:08:49.881Z,6.39
2023-01-30T08:09:49.875Z,6.40
2023-01-30T08:10:49.867Z,6.40
2023-01-30T08:11:49.855Z,6.42
2023-01-30T08:12:49.835Z,6.42
2023-01-30T08:13:49.832Z,6.45
2023-01-30T08:14:49.856Z,6.43
2023-01-30T08:15:49.819Z,6.43
2023-01-30T08:16:49.854Z,6.40
2023-01-30T08:17:49.782Z,6.38
2023-01-30T08:18:49.769Z,6.39
2023-01-30T08:19:49.772Z,6.45
2023-01-30T08:20:49.765Z,6.45
2023-01-30T08:21:49.743Z,6.46
2023-01-30T08:22:49.747Z,6.48
2023-01-30T08:23:49.732Z,6.48
2023-01-30T08:24:49.704Z,6.48
2023-01-30T08:25:49.718Z,6.46
2023-01-30T08:26:49.755Z,6.51
2023-01-30T08:27:49.676Z,6.51
2023-01-30T08:28:49.661Z,6.51
2023-01-30T08:29:49.688Z,6.51
2023-01-30T08:30:49.782Z,6.53
2023-01-30T08:31:49.650Z,6.53
2023-01-30T08:32:49.622Z,6.53
2023-01-30T08:33:49.609Z,6.53
2023-01-30T08:34:49.608Z,6.53
2023-01-30T08:35:49.616Z,6.51
2023-01-30T08:36:49.585Z,6.55
2023-01-30T08:37:49.573Z,6.61
2023-01-30T08:38:49.557Z,6.68
2023-01-30T08:39:49.542Z,6.69
2023-01-30T08:40:49.544Z,6.69
2023-01-30T08:41:49.534Z,6.65
2023-01-30T08:42:49.518Z,6.64
2023-01-30T08:43:49.504Z,6.64
2023-01-30T08:44:49.497Z,6.63
2023-01-30T08:45:49.488Z,6.58
2023-01-30T08:46:49.524Z,6.53
2023-01-30T08:47:49.467Z,6.54
2023-01-30T08:48:50.459Z,6.57
2023-01-30T08:49:49.458Z,6.60
2023-01-30T08:50:49.455Z,6.69
2023-01-30T08:51:49.461Z,6.78
2023-01-30T08:52:49.417Z,6.82
2023-01-30T08:53:49.398Z,6.81
2023-01-30T08:54:49.397Z,6.81
2023-01-30T08:55:49.368Z,6.83
2023-01-30T08:56:49.392Z,6.89
2023-01-30T08:57:49.349Z,6.93
2023-01-30T08:58:49.353Z,6.94
2023-01-30T08:59:49.327Z,6.97
2023-01-30T09:00:49.425Z,6.91
2023-01-30T09:01:49.319Z,6.90
2023-01-30T09:02:49.433Z,6.93
2023-01-30T09:03:49.288Z,6.90
2023-01-30T09:04:49.276Z,6.83
2023-01-30T09:05:49.263Z,6.83
2023-01-30T09:06:49.261Z,6.86
2023-01-30T09:07:49.239Z,6.89
2023-01-30T09:08:49.252Z,6.99
2023-01-30T09:09:49.235Z,7.04
2023-01-30T09:10:49.200Z,7.05
2023-01-30T09:11:49.208Z,7.04
2023-01-30T09:12:49.180Z,7.07
2023-01-30T09:13:49.906Z,7.04
2023-01-30T09:14:49.161Z,7.04
2023-01-30T09:15:55.721Z,7.04
2023-01-30T09:16:57.216Z,7.07
2023-01-30T09:17:49.130Z,7.05
2023-01-30T09:18:49.122Z,7.04
2023-01-30T09:19:49.112Z,7.05
2023-01-30T09:20:49.118Z,7.08
2023-01-30T09:21:49.115Z,7.11
2023-01-30T09:22:49.070Z,7.09
2023-01-30T09:23:49.148Z,7.07
2023-01-30T09:24:49.050Z,7.07
2023-01-30T09:25:49.044Z,7.08
2023-01-30T09:26:49.083Z,7.09
2023-01-30T09:27:49.032Z,7.12
2023-01-30T09:28:49.008Z,7.14
2023-01-30T09:29:49.006Z,7.15
2023-01-30T09:30:49.110Z,7.16
2023-01-30T09:31:49.027Z,7.15
2023-01-30T09:32:48.967Z,7.09
2023-01-30T09:33:48.964Z,7.05
2023-01-30T09:34:48.941Z,7.07
2023-01-30T09:35:48.932Z,7.05
2023-01-30T09:36:48.945Z,7.07
2023-01-30T09:37:48.913Z,7.07
2023-01-30T09:38:48.927Z,7.07
2023-01-30T09:39:55.436Z,7.08
2023-01-30T09:40:48.876Z,7.11
2023-01-30T09:41:48.877Z,7.07
2023-01-30T09:42:48.875Z,7.08
2023-01-30T09:43:48.911Z,7.14
2023-01-30T09:44:48.829Z,7.15
2023-01-30T09:45:48.869Z,7.18
2023-01-30T09:46:48.925Z,7.15
2023-01-30T09:47:48.859Z,7.18
2023-01-30T09:48:48.789Z,7.19
2023-01-30T09:49:48.781Z,7.19
2023-01-30T09:50:48.922Z,7.18
2023-01-30T09:51:48.766Z,7.26
2023-01-30T09:52:48.774Z,7.32
2023-01-30T09:53:48.731Z,7.27
2023-01-30T09:54:48.765Z,7.33
2023-01-30T09:55:48.709Z,7.34
2023-01-30T09:56:48.704Z,7.37
2023-01-30T09:57:48.738Z,7.41
2023-01-30T09:58:48.711Z,7.41
2023-01-30T09:59:48.675Z,7.41
2023-01-30T10:00:48.652Z,7.36
2023-01-30T10:01:48.661Z,7.36
2023-01-30T10:02:48.635Z,7.37
2023-01-30T10:03:48.630Z,7.37
2023-01-30T10:05:00.457Z,7.41
2023-01-30T10:05:48.618Z,7.44
2023-01-30T10:06:48.597Z,7.41
2023-01-30T10:07:48.624Z,7.42
2023-01-30T10:08:48.564Z,7.39
2023-01-30T10:09:48.559Z,7.44
2023-01-30T10:10:55.044Z,7.47
2023-01-30T10:11:48.557Z,7.44
2023-01-30T10:12:48.521Z,7.44
2023-01-30T10:13:48.541Z,7.42
2023-01-30T10:14:48.505Z,7.41
2023-01-30T10:15:48.637Z,7.39
2023-01-30T10:16:48.488Z,7.36
2023-01-30T10:17:48.465Z,7.36
2023-01-30T10:18:48.477Z,7.36
2023-01-30T10:19:48.446Z,7.36
2023-01-30T10:20:48.451Z,7.34
2023-01-30T10:21:48.464Z,7.36
2023-01-30T10:22:48.476Z,7.39
2023-01-30T10:23:48.411Z,7.34
2023-01-30T10:24:48.385Z,7.36
2023-01-30T10:25:48.417Z,7.37
2023-01-30T10:26:48.419Z,7.39
2023-01-30T10:27:48.369Z,7.39
2023-01-30T10:28:55.502Z,7.39
2023-01-30T10:29:48.365Z,7.39
2023-01-30T10:30:48.420Z,7.41
2023-01-30T10:31:48.361Z,7.45
2023-01-30T10:32:48.297Z,7.47
2023-01-30T10:33:48.424Z,7.45
2023-01-30T10:34:48.343Z,7.47
2023-01-30T10:35:48.319Z,7.47
2023-01-30T10:36:48.271Z,7.51
2023-01-30T10:37:48.245Z,7.54
2023-01-30T10:38:48.242Z,7.57
2023-01-30T10:39:54.853Z,7.55
2023-01-30T10:40:48.249Z,7.52
2023-01-30T10:41:48.209Z,7.51
2023-01-30T10:42:48.204Z,7.50
2023-01-30T10:43:48.180Z,7.47
2023-01-30T10:44:48.170Z,7.42
2023-01-30T10:45:48.200Z,7.36
2023-01-30T10:46:48.686Z,7.36
2023-01-30T10:47:48.310Z,7.30
2023-01-30T10:48:48.124Z,7.26
2023-01-30T10:49:48.115Z,7.18
2023-01-30T10:50:48.105Z,7.09
2023-01-30T10:51:48.098Z,7.04
2023-01-30T10:52:48.088Z,6.99
2023-01-30T10:53:48.069Z,6.93
2023-01-30T10:54:48.059Z,6.89
2023-01-30T10:55:48.067Z,6.86
2023-01-30T10:56:48.053Z,6.83
2023-01-30T10:57:48.039Z,6.87
2023-01-30T10:58:48.149Z,6.86
2023-01-30T10:59:48.174Z,6.91
2023-01-30T11:00:48.104Z,6.93
2023-01-30T11:01:48.021Z,6.94
2023-01-30T11:02:50.747Z,6.97
2023-01-30T11:03:47.966Z,6.97
2023-01-30T11:04:47.946Z,6.97
2023-01-30T11:05:47.941Z,6.97
2023-01-30T11:06:47.921Z,6.99
2023-01-30T11:07:47.927Z,6.96
2023-01-30T11:08:47.899Z,7.01
2023-01-30T11:09:47.913Z,7.05
2023-01-30T11:10:47.878Z,7.08
2023-01-30T11:11:47.872Z,7.11
2023-01-30T11:12:47.944Z,7.12
2023-01-30T11:13:47.848Z,7.18
2023-01-30T11:14:47.879Z,7.23
2023-01-30T11:15:47.898Z,7.26
2023-01-30T11:16:47.834Z,7.27
2023-01-30T11:17:47.874Z,7.24
2023-01-30T11:19:47.788Z,7.26
2023-01-30T11:20:48.144Z,7.24
2023-01-30T11:21:47.775Z,7.26
2023-01-30T11:22:47.764Z,7.27
2023-01-30T11:23:47.741Z,7.30
2023-01-30T11:24:47.732Z,7.30
2023-01-30T11:25:47.720Z,7.30
2023-01-30T11:26:48.676Z,7.34
2023-01-30T11:27:47.707Z,7.37
2023-01-30T11:28:49.022Z,7.39
2023-01-30T11:29:47.833Z,7.41
2023-01-30T11:30:47.867Z,7.44
2023-01-30T11:31:47.817Z,7.45
2023-01-30T11:32:47.928Z,7.48
2023-01-30T11:33:47.638Z,7.51
2023-01-30T11:34:47.616Z,7.54
2023-01-30T11:35:47.623Z,7.58
2023-01-30T11:36:47.597Z,7.62
2023-01-30T11:37:47.599Z,7.66
2023-01-30T11:38:47.573Z,7.66
2023-01-30T11:39:47.563Z,7.66
2023-01-30T11:40:47.549Z,7.67
2023-01-30T11:41:47.540Z,7.70
2023-01-30T11:42:47.564Z,7.69
2023-01-30T11:43:47.533Z,7.70
2023-01-30T11:44:47.944Z,7.71
2023-01-30T11:45:47.650Z,7.73
2023-01-30T11:46:47.589Z,7.76
2023-01-30T11:47:54.255Z,7.79
2023-01-30T11:49:04.378Z,7.79
2023-01-30T11:51:31.975Z,7.77
2023-01-30T11:51:36.675Z,7.76
2023-01-30T11:51:47.550Z,7.77
2023-01-30T11:52:47.507Z,7.79
2023-01-30T11:53:47.442Z,7.81
2023-01-30T11:54:47.577Z,7.81
2023-01-30T11:56:02.264Z,7.82
2023-01-30T11:56:47.440Z,7.79
2023-01-30T11:57:47.476Z,7.82
2023-01-30T11:58:47.508Z,7.84
2023-01-30T11:59:47.350Z,7.81
2023-01-30T12:00:47.343Z,7.79
2023-01-30T12:01:47.434Z,7.77
2023-01-30T12:02:47.340Z,7.81
2023-01-30T12:03:47.316Z,7.81
2023-01-30T12:04:47.305Z,7.81
2023-01-30T12:05:47.289Z,7.84
2023-01-30T12:06:47.269Z,7.89
2023-01-30T12:07:47.275Z,7.88
2023-01-30T12:08:47.270Z,7.89
2023-01-30T12:09:47.236Z,7.91
2023-01-30T12:10:47.217Z,7.92
2023-01-30T12:11:47.249Z,7.95
2023-01-30T12:12:47.203Z,8.00
2023-01-30T12:13:47.209Z,8.02
2023-01-30T12:14:47.177Z,8.03
2023-01-30T12:15:47.180Z,8.03
2023-01-30T12:16:47.215Z,8.03
2023-01-30T12:17:47.180Z,8.04
2023-01-30T12:18:47.148Z,8.03
2023-01-30T12:19:47.132Z,8.07
2023-01-30T12:20:47.124Z,8.09
2023-01-30T12:21:47.110Z,8.09
2023-01-30T12:22:47.095Z,8.06
2023-01-30T12:23:47.097Z,8.03
2023-01-30T12:24:47.076Z,8.02
2023-01-30T12:25:47.065Z,8.00
2023-01-30T12:26:47.192Z,8.00
2023-01-30T12:27:47.097Z,8.00
2023-01-30T12:28:47.041Z,7.99
2023-01-30T12:29:47.018Z,7.99
2023-01-30T12:30:47.004Z,7.99
2023-01-30T12:31:46.995Z,8.00
2023-01-30T12:32:46.998Z,8.04
2023-01-30T12:33:47.023Z,8.07
2023-01-30T12:34:47.003Z,8.04
2023-01-30T12:35:46.984Z,8.00
2023-01-30T12:36:46.938Z,7.96
2023-01-30T12:37:46.938Z,7.94
2023-01-30T12:38:46.958Z,7.91
2023-01-30T12:39:46.916Z,7.89
2023-01-30T12:40:47.286Z,7.89
2023-01-30T12:41:46.886Z,7.91
2023-01-30T12:42:46.882Z,7.95
2023-01-30T12:43:46.873Z,7.95
2023-01-30T12:44:46.952Z,7.96
2023-01-30T12:45:46.846Z,8.00
2023-01-30T12:46:46.838Z,8.02
2023-01-30T12:47:46.829Z,8.03
2023-01-30T12:48:48.834Z,8.03
2023-01-30T12:49:46.820Z,8.02
2023-01-30T12:50:46.827Z,8.04
2023-01-30T12:51:46.772Z,8.09
2023-01-30T12:52:46.771Z,8.09
2023-01-30T12:53:46.764Z,8.13
2023-01-30T12:54:46.748Z,8.20
2023-01-30T12:55:46.729Z,8.25
2023-01-30T12:56:48.252Z,8.29
2023-01-30T12:57:46.714Z,8.31
2023-01-30T12:58:46.710Z,8.32
2023-01-30T12:59:46.684Z,8.34
2023-01-30T13:00:46.682Z,8.28
2023-01-30T13:01:46.729Z,8.25
2023-01-30T13:02:46.711Z,8.27
2023-01-30T13:03:46.657Z,8.31
2023-01-30T13:04:56.190Z,8.31
2023-01-30T13:05:46.627Z,8.32
2023-01-30T13:06:46.624Z,8.34
2023-01-30T13:07:46.606Z,8.34
2023-01-30T13:08:46.599Z,8.29
2023-01-30T13:09:46.574Z,8.24
2023-01-30T13:10:46.569Z,8.18
2023-01-30T13:11:46.560Z,8.13
2023-01-30T13:12:46.542Z,8.10
2023-01-30T13:13:46.543Z,8.12
2023-01-30T13:14:46.530Z,8.12
2023-01-30T13:15:46.596Z,8.12
2023-01-30T13:16:46.499Z,8.12
2023-01-30T13:17:46.490Z,8.06
2023-01-30T13:18:46.491Z,8.04
2023-01-30T13:19:46.492Z,8.04
2023-01-30T13:20:46.466Z,8.02
2023-01-30T13:21:46.445Z,8.03
2023-01-30T13:22:46.452Z,8.06